sensor_id;sensor_type;location;lat;lon;timestamp;pressure;altitude;pressure_sealevel;temperature;humidity
48204;BME280;33994;50.998;5.864;2023-04-07T00:02:10;100930.59;;;8.28;100.00
48204;BME280;33994;50.998;5.864;2023-04-07T00:05:14;100934.06;;;8.29;100.00
48204;BME280;33994;50.998;5.864;2023-04-07T00:08:17;100940.16;;;8.31;100.00
48204;BME280;33994;50.998;5.864;2023-04-07T00:11:20;100927.97;;;8.30;100.00
48204;BME280;33994;50.998;5.864;2023-04-07T00:14:23;100927.13;;;8.30;100.00
48204;BME280;33994;50.998;5.864;2023-04-07T00:17:26;100937.56;;;8.28;100.00
48204;BME280;33994;50.998;5.864;2023-04-07T00:20:31;100936.66;;;8.31;100.00
48204;BME280;33994;50.998;5.864;2023-04-07T00:23:33;100937.56;;;8.31;100.00
48204;BME280;33994;50.998;5.864;2023-04-07T00:26:37;100925.38;;;8.30;100.00
48204;BME280;33994;50.998;5.864;2023-04-07T00:29:40;100934.06;;;8.29;100.00
48204;BME280;33994;50.998;5.864;2023-04-07T00:32:43;100927.13;;;8.28;100.00
48204;BME280;33994;50.998;5.864;2023-04-07T00:35:48;100934.06;;;8.29;100.00
48204;BME280;33994;50.998;5.864;2023-04-07T00:38:51;100931.47;;;8.26;100.00
48204;BME280;33994;50.998;5.864;2023-04-07T00:41:55;100931.50;;;8.24;100.00
48204;BME280;33994;50.998;5.864;2023-04-07T00:44:58;100935.84;;;8.24;100.00
48204;BME280;33994;50.998;5.864;2023-04-07T00:48:01;100922.78;;;8.22;100.00
48204;BME280;33994;50.998;5.864;2023-04-07T00:51:06;100928.03;;;8.21;100.00
48204;BME280;33994;50.998;5.864;2023-04-07T00:54:09;100924.56;;;8.20;100.00
48204;BME280;33994;50.998;5.864;2023-04-07T00:57:13;100931.50;;;8.20;100.00
48204;BME280;33994;50.998;5.864;2023-04-07T01:00:16;100928.91;;;8.20;100.00
48204;BME280;33994;50.998;5.864;2023-04-07T01:03:24;100930.63;;;8.18;100.00
48204;BME280;33994;50.998;5.864;2023-04-07T01:06:36;100928.91;;;8.15;100.00
48204;BME280;33994;50.998;5.864;2023-04-07T01:09:45;100928.91;;;8.14;100.00
48204;BME280;33994;50.998;5.864;2023-04-07T01:12:51;100932.41;;;8.10;100.00
48204;BME280;33994;50.998;5.864;2023-04-07T01:15:57;100941.09;;;8.09;100.00
48204;BME280;33994;50.998;5.864;2023-04-07T01:19:11;100934.16;;;8.06;100.00
48204;BME280;33994;50.998;5.864;2023-04-07T01:22:20;100935.00;;;8.03;100.00
48204;BME280;33994;50.998;5.864;2023-04-07T01:25:34;100935.03;;;8.00;100.00
48204;BME280;33994;50.998;5.864;2023-04-07T01:28:48;100945.44;;;7.99;100.00
48204;BME280;33994;50.998;5.864;2023-04-07T01:31:59;100938.50;;;7.95;100.00
48204;BME280;33994;50.998;5.864;2023-04-07T01:35:04;100937.66;;;7.94;100.00
48204;BME280;33994;50.998;5.864;2023-04-07T01:38:09;100937.63;;;7.93;100.00
48204;BME280;33994;50.998;5.864;2023-04-07T01:41:14;100940.25;;;7.91;100.00
48204;BME280;33994;50.998;5.864;2023-04-07T01:44:19;100948.94;;;7.87;100.00
48204;BME280;33994;50.998;5.864;2023-04-07T01:47:24;100948.06;;;7.85;100.00
48204;BME280;33994;50.998;5.864;2023-04-07T01:50:28;100941.13;;;7.84;100.00
48204;BME280;33994;50.998;5.864;2023-04-07T01:53:33;100944.63;;;7.83;100.00
48204;BME280;33994;50.998;5.864;2023-04-07T01:56:37;100941.13;;;7.84;100.00
48204;BME280;33994;50.998;5.864;2023-04-07T01:59:40;100942.88;;;7.84;100.00
48204;BME280;33994;50.998;5.864;2023-04-07T02:02:46;100944.63;;;7.83;100.00
48204;BME280;33994;50.998;5.864;2023-04-07T02:05:54;100942.88;;;7.82;100.00
48204;BME280;33994;50.998;5.864;2023-04-07T02:09:01;100943.75;;;7.83;100.00
48204;BME280;33994;50.998;5.864;2023-04-07T02:12:06;100945.50;;;7.79;100.00
48204;BME280;33994;50.998;5.864;2023-04-07T02:15:11;100953.31;;;7.79;100.00
48204;BME280;33994;50.998;5.864;2023-04-07T02:18:16;100958.50;;;7.79;100.00
48204;BME280;33994;50.998;5.864;2023-04-07T02:21:22;100956.75;;;7.81;100.00
48204;BME280;33994;50.998;5.864;2023-04-07T02:24:25;100954.19;;;7.78;100.00
48204;BME280;33994;50.998;5.864;2023-04-07T02:27:29;100956.75;;;7.81;100.00
48204;BME280;33994;50.998;5.864;2023-04-07T02:30:32;100953.31;;;7.79;100.00
48204;BME280;33994;50.998;5.864;2023-04-07T02:33:37;100958.50;;;7.79;100.00
48204;BME280;33994;50.998;5.864;2023-04-07T02:36:40;100958.50;;;7.81;100.00
48204;BME280;33994;50.998;5.864;2023-04-07T02:39:43;100949.81;;;7.77;100.00
48204;BME280;33994;50.998;5.864;2023-04-07T02:42:46;100955.91;;;7.81;100.00
48204;BME280;33994;50.998;5.864;2023-04-07T02:45:49;100952.44;;;7.82;100.00
48204;BME280;33994;50.998;5.864;2023-04-07T02:48:54;100948.09;;;7.82;100.00
48204;BME280;33994;50.998;5.864;2023-04-07T02:51:57;100947.22;;;7.83;100.00
48204;BME280;33994;50.998;5.864;2023-04-07T02:55:00;100955.03;;;7.85;100.00
48204;BME280;33994;50.998;5.864;2023-04-07T02:58:03;100968.03;;;7.85;100.00
48204;BME280;33994;50.998;5.864;2023-04-07T03:01:06;100972.38;;;7.87;100.00
48204;BME280;33994;50.998;5.864;2023-04-07T03:04:11;100967.19;;;7.86;100.00
48204;BME280;33994;50.998;5.864;2023-04-07T03:07:14;100968.91;;;7.85;100.00
48204;BME280;33994;50.998;5.864;2023-04-07T03:10:17;100961.09;;;7.88;100.00
48204;BME280;33994;50.998;5.864;2023-04-07T03:13:20;100964.56;;;7.87;100.00
48204;BME280;33994;50.998;5.864;2023-04-07T03:16:23;100956.75;;;7.89;100.00
48204;BME280;33994;50.998;5.864;2023-04-07T03:19:28;100963.72;;;7.87;100.00
48204;BME280;33994;50.998;5.864;2023-04-07T03:22:30;100966.28;;;7.88;100.00
48204;BME280;33994;50.998;5.864;2023-04-07T03:25:34;100970.66;;;7.89;100.00
48204;BME280;33994;50.998;5.864;2023-04-07T03:28:37;100957.63;;;7.91;100.00
48204;BME280;33994;50.998;5.864;2023-04-07T03:31:40;100958.47;;;7.91;100.00
48204;BME280;33994;50.998;5.864;2023-04-07T03:34:45;100956.75;;;7.90;100.00
48204;BME280;33994;50.998;5.864;2023-04-07T03:37:48;100967.16;;;7.92;100.00
48204;BME280;33994;50.998;5.864;2023-04-07T03:40:51;100965.41;;;7.92;100.00
48204;BME280;33994;50.998;5.864;2023-04-07T03:43:54;100968.03;;;7.92;100.00
48204;BME280;33994;50.998;5.864;2023-04-07T03:46:58;100972.38;;;7.92;100.00
48204;BME280;33994;50.998;5.864;2023-04-07T03:50:02;100974.97;;;7.92;100.00
48204;BME280;33994;50.998;5.864;2023-04-07T03:53:06;100975.00;;;7.93;100.00
48204;BME280;33994;50.998;5.864;2023-04-07T03:56:09;100974.13;;;7.91;100.00
48204;BME280;33994;50.998;5.864;2023-04-07T03:59:12;100978.47;;;7.89;100.00
48204;BME280;33994;50.998;5.864;2023-04-07T04:02:15;100979.31;;;7.91;100.00
48204;BME280;33994;50.998;5.864;2023-04-07T04:05:20;100973.25;;;7.91;100.00
48204;BME280;33994;50.998;5.864;2023-04-07T04:08:23;100977.59;;;7.87;100.00
48204;BME280;33994;50.998;5.864;2023-04-07T04:11:26;100980.22;;;7.83;100.00
48204;BME280;33994;50.998;5.864;2023-04-07T04:14:29;100977.59;;;7.81;100.00
48204;BME280;33994;50.998;5.864;2023-04-07T04:17:32;100982.81;;;7.78;100.00
48204;BME280;33994;50.998;5.864;2023-04-07T04:20:37;100983.69;;;7.72;100.00
48204;BME280;33994;50.998;5.864;2023-04-07T04:23:40;100983.69;;;7.69;100.00
48204;BME280;33994;50.998;5.864;2023-04-07T04:26:43;100988.91;;;7.68;100.00
48204;BME280;33994;50.998;5.864;2023-04-07T04:29:46;100987.16;;;7.64;99.70
48204;BME280;33994;50.998;5.864;2023-04-07T04:32:49;100994.97;;;7.61;99.22
48204;BME280;33994;50.998;5.864;2023-04-07T04:35:54;100993.25;;;7.57;98.35
48204;BME280;33994;50.998;5.864;2023-04-07T04:38:57;101003.63;;;7.53;97.86
48204;BME280;33994;50.998;5.864;2023-04-07T04:42:00;101007.13;;;7.52;97.52
48204;BME280;33994;50.998;5.864;2023-04-07T04:45:03;101001.03;;;7.50;97.38
48204;BME280;33994;50.998;5.864;2023-04-07T04:48:07;101001.91;;;7.49;97.53
48204;BME280;33994;50.998;5.864;2023-04-07T04:51:11;101008.84;;;7.47;97.12
48204;BME280;33994;50.998;5.864;2023-04-07T04:54:15;101017.53;;;7.48;97.35
48204;BME280;33994;50.998;5.864;2023-04-07T04:57:18;101023.59;;;7.44;97.12
48204;BME280;33994;50.998;5.864;2023-04-07T05:00:21;101028.78;;;7.42;96.86
48204;BME280;33994;50.998;5.864;2023-04-07T05:03:24;101032.28;;;7.40;96.77
48204;BME280;33994;50.998;5.864;2023-04-07T05:06:28;101029.66;;;7.41;96.92
48204;BME280;33994;50.998;5.864;2023-04-07T05:09:31;101029.66;;;7.41;97.03
48204;BME280;33994;50.998;5.864;2023-04-07T05:12:34;101034.00;;;7.41;96.83
48204;BME280;33994;50.998;5.864;2023-04-07T05:15:40;101038.34;;;7.40;97.05
48204;BME280;33994;50.998;5.864;2023-04-07T05:18:43;101033.13;;;7.37;97.14
48204;BME280;33994;50.998;5.864;2023-04-07T05:21:47;101028.75;;;7.36;97.15
48204;BME280;33994;50.998;5.864;2023-04-07T05:24:50;101037.41;;;7.34;97.36
48204;BME280;33994;50.998;5.864;2023-04-07T05:27:53;101038.31;;;7.36;97.75
48204;BME280;33994;50.998;5.864;2023-04-07T05:30:56;101038.31;;;7.39;98.04
48204;BME280;33994;50.998;5.864;2023-04-07T05:33:59;101041.81;;;7.53;98.10
48204;BME280;33994;50.998;5.864;2023-04-07T05:37:03;101038.38;;;7.59;97.71
48204;BME280;33994;50.998;5.864;2023-04-07T05:40:07;101036.63;;;7.56;97.48
48204;BME280;33994;50.998;5.864;2023-04-07T05:43:10;101048.78;;;7.56;97.32
48204;BME280;33994;50.998;5.864;2023-04-07T05:46:13;101048.75;;;7.52;97.48
48204;BME280;33994;50.998;5.864;2023-04-07T05:49:17;101047.88;;;7.50;97.80
48204;BME280;33994;50.998;5.864;2023-04-07T05:52:21;101049.63;;;7.53;98.19
48204;BME280;33994;50.998;5.864;2023-04-07T05:55:24;101051.38;;;7.56;98.40
48204;BME280;33994;50.998;5.864;2023-04-07T05:58:27;101051.38;;;7.57;98.40
48204;BME280;33994;50.998;5.864;2023-04-07T06:01:31;101060.03;;;7.58;98.14
48204;BME280;33994;50.998;5.864;2023-04-07T06:04:34;101063.50;;;7.61;98.29
48204;BME280;33994;50.998;5.864;2023-04-07T06:07:38;101054.84;;;7.61;98.48
48204;BME280;33994;50.998;5.864;2023-04-07T06:10:41;101072.19;;;7.57;98.40
48204;BME280;33994;50.998;5.864;2023-04-07T06:13:44;101063.53;;;7.55;98.51
48204;BME280;33994;50.998;5.864;2023-04-07T06:16:47;101073.94;;;7.52;98.50
48204;BME280;33994;50.998;5.864;2023-04-07T06:19:51;101077.41;;;7.51;98.55
48204;BME280;33994;50.998;5.864;2023-04-07T06:22:56;101077.38;;;7.49;98.59
48204;BME280;33994;50.998;5.864;2023-04-07T06:25:58;101086.06;;;7.50;98.98
48204;BME280;33994;50.998;5.864;2023-04-07T06:29:01;101088.66;;;7.50;99.07
48204;BME280;33994;50.998;5.864;2023-04-07T06:32:04;101097.34;;;7.52;99.51
48204;BME280;33994;50.998;5.864;2023-04-07T06:35:08;101090.41;;;7.52;99.25
48204;BME280;33994;50.998;5.864;2023-04-07T06:38:12;101089.53;;;7.57;99.19
48204;BME280;33994;50.998;5.864;2023-04-07T06:41:16;101094.75;;;7.60;99.24
48204;BME280;33994;50.998;5.864;2023-04-07T06:44:19;101091.28;;;7.65;99.21
48204;BME280;33994;50.998;5.864;2023-04-07T06:47:22;101101.72;;;7.67;99.29
48204;BME280;33994;50.998;5.864;2023-04-07T06:50:25;101103.44;;;7.71;99.26
48204;BME280;33994;50.998;5.864;2023-04-07T06:53:29;101103.44;;;7.71;98.87
48204;BME280;33994;50.998;5.864;2023-04-07T06:56:32;101106.91;;;7.73;98.84
48204;BME280;33994;50.998;5.864;2023-04-07T06:59:36;101111.25;;;7.77;98.76
48204;BME280;33994;50.998;5.864;2023-04-07T07:02:39;101117.34;;;7.81;98.83
48204;BME280;33994;50.998;5.864;2023-04-07T07:05:42;101125.16;;;7.84;98.80
48204;BME280;33994;50.998;5.864;2023-04-07T07:08:47;101123.44;;;7.87;98.47
48204;BME280;33994;50.998;5.864;2023-04-07T07:11:50;101131.25;;;7.86;98.16
48204;BME280;33994;50.998;5.864;2023-04-07T07:14:53;101130.34;;;7.85;98.32
48204;BME280;33994;50.998;5.864;2023-04-07T07:17:56;101140.78;;;7.85;98.46
48204;BME280;33994;50.998;5.864;2023-04-07T07:20:59;101138.19;;;7.82;98.06
48204;BME280;33994;50.998;5.864;2023-04-07T07:24:04;101137.31;;;7.83;98.19
48204;BME280;33994;50.998;5.864;2023-04-07T07:27:07;101141.63;;;7.81;97.84
48204;BME280;33994;50.998;5.864;2023-04-07T07:30:10;101146.00;;;7.82;97.61
48204;BME280;33994;50.998;5.864;2023-04-07T07:33:14;101147.75;;;7.86;97.75
48204;BME280;33994;50.998;5.864;2023-04-07T07:36:18;101150.34;;;7.89;97.69
48204;BME280;33994;50.998;5.864;2023-04-07T07:39:22;101146.84;;;7.89;97.38
48204;BME280;33994;50.998;5.864;2023-04-07T07:42:25;101160.75;;;7.92;97.54
48204;BME280;33994;50.998;5.864;2023-04-07T07:45:28;101162.50;;;7.92;97.63
48204;BME280;33994;50.998;5.864;2023-04-07T07:48:31;101148.59;;;7.93;97.61
48204;BME280;33994;50.998;5.864;2023-04-07T07:51:34;101152.94;;;7.95;97.17
48204;BME280;33994;50.998;5.864;2023-04-07T07:54:38;101160.75;;;7.95;97.18
48204;BME280;33994;50.998;5.864;2023-04-07T07:57:41;101158.16;;;7.98;96.91
48204;BME280;33994;50.998;5.864;2023-04-07T08:00:45;101166.00;;;7.97;96.88
48204;BME280;33994;50.998;5.864;2023-04-07T08:03:48;101166.00;;;7.97;96.63
48204;BME280;33994;50.998;5.864;2023-04-07T08:06:51;101170.31;;;7.99;96.59
48204;BME280;33994;50.998;5.864;2023-04-07T08:09:56;101168.59;;;8.03;96.77
48204;BME280;33994;50.998;5.864;2023-04-07T08:12:59;101163.38;;;8.05;96.82
48204;BME280;33994;50.998;5.864;2023-04-07T08:16:02;101171.19;;;8.09;97.14
48204;BME280;33994;50.998;5.864;2023-04-07T08:19:05;101177.28;;;8.19;97.16
48204;BME280;33994;50.998;5.864;2023-04-07T08:22:08;101179.91;;;8.20;96.50
48204;BME280;33994;50.998;5.864;2023-04-07T08:25:13;101179.03;;;8.17;96.33
48204;BME280;33994;50.998;5.864;2023-04-07T08:28:16;101183.34;;;8.19;96.94
48204;BME280;33994;50.998;5.864;2023-04-07T08:31:19;101177.28;;;8.25;97.04
48204;BME280;33994;50.998;5.864;2023-04-07T08:34:22;101184.22;;;8.31;96.97
48204;BME280;33994;50.998;5.864;2023-04-07T08:37:25;101184.25;;;8.35;97.06
48204;BME280;33994;50.998;5.864;2023-04-07T08:40:29;101187.72;;;8.40;96.45
48204;BME280;33994;50.998;5.864;2023-04-07T08:43:35;101192.94;;;8.43;96.08
48204;BME280;33994;50.998;5.864;2023-04-07T08:46:38;101197.25;;;8.44;95.35
48204;BME280;33994;50.998;5.864;2023-04-07T08:49:43;101201.59;;;8.48;95.39
48204;BME280;33994;50.998;5.864;2023-04-07T08:52:49;101200.72;;;8.49;95.14
48204;BME280;33994;50.998;5.864;2023-04-07T08:55:56;101203.34;;;8.52;94.98
48204;BME280;33994;50.998;5.864;2023-04-07T08:59:00;101202.47;;;8.53;95.05
48204;BME280;33994;50.998;5.864;2023-04-07T09:02:04;101210.28;;;8.57;95.06
48204;BME280;33994;50.998;5.864;2023-04-07T09:05:08;101204.22;;;8.59;95.14
48204;BME280;33994;50.998;5.864;2023-04-07T09:08:10;101209.41;;;8.61;95.02
48204;BME280;33994;50.998;5.864;2023-04-07T09:11:15;101213.78;;;8.62;94.85
48204;BME280;33994;50.998;5.864;2023-04-07T09:14:19;101210.31;;;8.66;94.63
48204;BME280;33994;50.998;5.864;2023-04-07T09:17:24;101205.94;;;8.68;94.50
48204;BME280;33994;50.998;5.864;2023-04-07T09:20:28;101208.53;;;8.75;94.42
48204;BME280;33994;50.998;5.864;2023-04-07T09:23:51;101207.66;;;8.76;93.34
48204;BME280;33994;50.998;5.864;2023-04-07T09:27:14;101205.94;;;8.75;93.11
48204;BME280;33994;50.998;5.864;2023-04-07T09:30:17;101204.19;;;8.79;93.20
48204;BME280;33994;50.998;5.864;2023-04-07T09:33:26;101211.16;;;8.79;92.65
48204;BME280;33994;50.998;5.864;2023-04-07T09:36:40;101208.53;;;8.83;92.98
48204;BME280;33994;50.998;5.864;2023-04-07T09:39:51;101212.84;;;8.84;92.55
48204;BME280;33994;50.998;5.864;2023-04-07T09:42:56;101208.50;;;8.88;91.88
48204;BME280;33994;50.998;5.864;2023-04-07T09:46:06;101211.13;;;8.91;91.16
48204;BME280;33994;50.998;5.864;2023-04-07T09:49:09;101209.38;;;8.90;90.21
48204;BME280;33994;50.998;5.864;2023-04-07T09:52:12;101208.53;;;8.92;89.30
48204;BME280;33994;50.998;5.864;2023-04-07T09:55:16;101209.38;;;8.91;88.29
48204;BME280;33994;50.998;5.864;2023-04-07T09:58:22;101216.34;;;8.92;88.50
48204;BME280;33994;50.998;5.864;2023-04-07T10:01:25;101218.06;;;8.95;88.39
48204;BME280;33994;50.998;5.864;2023-04-07T10:04:28;101222.41;;;8.91;87.65
48204;BME280;33994;50.998;5.864;2023-04-07T10:07:31;101215.47;;;8.90;86.93
48204;BME280;33994;50.998;5.864;2023-04-07T10:10:35;101218.97;;;8.92;86.64
48204;BME280;33994;50.998;5.864;2023-04-07T10:13:40;101212.84;;;8.98;86.72
48204;BME280;33994;50.998;5.864;2023-04-07T10:16:45;101211.09;;;9.06;86.29
48204;BME280;33994;50.998;5.864;2023-04-07T10:19:49;101214.56;;;9.11;85.66
48204;BME280;33994;50.998;5.864;2023-04-07T10:22:54;101213.66;;;9.17;85.62
48204;BME280;33994;50.998;5.864;2023-04-07T10:26:02;101218.88;;;9.20;85.12
48204;BME280;33994;50.998;5.864;2023-04-07T10:29:10;101211.91;;;9.22;84.96
48204;BME280;33994;50.998;5.864;2023-04-07T10:32:15;101217.16;;;9.31;84.96
48204;BME280;33994;50.998;5.864;2023-04-07T10:35:19;101223.22;;;9.32;84.08
48204;BME280;33994;50.998;5.864;2023-04-07T10:38:22;101223.22;;;9.33;84.02
48204;BME280;33994;50.998;5.864;2023-04-07T10:41:32;101223.22;;;9.35;83.53
48204;BME280;33994;50.998;5.864;2023-04-07T10:44:47;101214.50;;;9.37;83.46
48204;BME280;33994;50.998;5.864;2023-04-07T10:48:08;101226.69;;;9.38;83.06
48204;BME280;33994;50.998;5.864;2023-04-07T10:51:18;101226.69;;;9.34;83.54
48204;BME280;33994;50.998;5.864;2023-04-07T10:54:21;101231.03;;;9.30;83.82
48204;BME280;33994;50.998;5.864;2023-04-07T10:57:25;101238.03;;;9.28;84.09
48204;BME280;33994;50.998;5.864;2023-04-07T11:00:29;101231.03;;;9.24;84.13
48204;BME280;33994;50.998;5.864;2023-04-07T11:03:33;101237.13;;;9.21;84.26
48204;BME280;33994;50.998;5.864;2023-04-07T11:06:45;101237.16;;;9.26;84.39
48204;BME280;33994;50.998;5.864;2023-04-07T11:09:49;101231.94;;;9.31;84.28
48204;BME280;33994;50.998;5.864;2023-04-07T11:12:59;101239.75;;;9.35;84.36
48204;BME280;33994;50.998;5.864;2023-04-07T11:16:05;101239.75;;;9.35;84.43
48204;BME280;33994;50.998;5.864;2023-04-07T11:19:09;101242.34;;;9.37;84.81
48204;BME280;33994;50.998;5.864;2023-04-07T11:22:12;101240.59;;;9.39;84.04
48204;BME280;33994;50.998;5.864;2023-04-07T11:25:19;101241.47;;;9.39;83.06
48204;BME280;33994;50.998;5.864;2023-04-07T11:28:23;101257.13;;;9.39;82.59
48204;BME280;33994;50.998;5.864;2023-04-07T11:31:28;101250.16;;;9.41;82.18
48204;BME280;33994;50.998;5.864;2023-04-07T11:34:32;101245.81;;;9.40;81.83
48204;BME280;33994;50.998;5.864;2023-04-07T11:37:36;101243.22;;;9.36;81.94
48204;BME280;33994;50.998;5.864;2023-04-07T11:40:39;101250.16;;;9.40;81.98
48204;BME280;33994;50.998;5.864;2023-04-07T11:43:42;101258.00;;;9.40;82.10
48204;BME280;33994;50.998;5.864;2023-04-07T11:46:54;101258.88;;;9.37;82.08
48204;BME280;33994;50.998;5.864;2023-04-07T11:49:57;101261.50;;;9.33;82.56
48204;BME280;33994;50.998;5.864;2023-04-07T11:53:00;101266.75;;;9.31;82.56
48204;BME280;33994;50.998;5.864;2023-04-07T11:56:05;101268.47;;;9.26;82.77
48204;BME280;33994;50.998;5.864;2023-04-07T11:59:17;101272.81;;;9.19;82.79
48204;BME280;33994;50.998;5.864;2023-04-07T12:02:31;101284.97;;;9.22;82.96
48204;BME280;33994;50.998;5.864;2023-04-07T12:05:41;101271.06;;;9.18;82.35
48204;BME280;33994;50.998;5.864;2023-04-07T12:08:44;101276.28;;;9.21;82.28
48204;BME280;33994;50.998;5.864;2023-04-07T12:11:48;101271.09;;;9.23;82.18
48204;BME280;33994;50.998;5.864;2023-04-07T12:14:52;101274.56;;;9.30;81.76
48204;BME280;33994;50.998;5.864;2023-04-07T12:17:56;101278.03;;;9.33;81.40
48204;BME280;33994;50.998;5.864;2023-04-07T12:20:59;101276.25;;;9.41;81.61
48204;BME280;33994;50.998;5.864;2023-04-07T12:24:02;101283.19;;;9.55;81.49
48204;BME280;33994;50.998;5.864;2023-04-07T12:27:05;101285.81;;;9.61;81.04
48204;BME280;33994;50.998;5.864;2023-04-07T12:30:09;101283.13;;;9.74;80.68
48204;BME280;33994;50.998;5.864;2023-04-07T12:33:13;101282.19;;;9.83;80.08
48204;BME280;33994;50.998;5.864;2023-04-07T12:36:17;101282.16;;;9.94;80.00
48204;BME280;33994;50.998;5.864;2023-04-07T12:39:20;101276.03;;;10.00;78.88
48204;BME280;33994;50.998;5.864;2023-04-07T12:42:24;101284.72;;;10.05;78.46
48204;BME280;33994;50.998;5.864;2023-04-07T12:45:27;101290.78;;;10.14;78.25
48204;BME280;33994;50.998;5.864;2023-04-07T12:48:31;101285.47;;;10.23;77.73
48204;BME280;33994;50.998;5.864;2023-04-07T12:51:34;101288.03;;;10.31;77.10
48204;BME280;33994;50.998;5.864;2023-04-07T12:54:38;101288.91;;;10.32;76.84
48204;BME280;33994;50.998;5.864;2023-04-07T12:57:41;101284.50;;;10.38;76.85
48204;BME280;33994;50.998;5.864;2023-04-07T13:00:44;101281.81;;;10.47;76.73
48204;BME280;33994;50.998;5.864;2023-04-07T13:03:48;101280.91;;;10.53;76.42
48204;BME280;33994;50.998;5.864;2023-04-07T13:06:51;101281.75;;;10.58;76.51
48204;BME280;33994;50.998;5.864;2023-04-07T13:09:54;101293.06;;;10.59;76.23
48204;BME280;33994;50.998;5.864;2023-04-07T13:12:58;101288.78;;;10.50;76.19
48204;BME280;33994;50.998;5.864;2023-04-07T13:16:01;101289.72;;;10.41;76.29
48204;BME280;33994;50.998;5.864;2023-04-07T13:19:06;101289.78;;;10.31;76.49
48204;BME280;33994;50.998;5.864;2023-04-07T13:22:09;101296.81;;;10.21;77.17
48204;BME280;33994;50.998;5.864;2023-04-07T13:25:13;101298.66;;;10.07;78.55
48204;BME280;33994;50.998;5.864;2023-04-07T13:28:16;101299.56;;;9.96;80.23
48204;BME280;33994;50.998;5.864;2023-04-07T13:31:19;101308.31;;;9.88;81.20
48204;BME280;33994;50.998;5.864;2023-04-07T13:34:24;101306.63;;;9.76;81.84
48204;BME280;33994;50.998;5.864;2023-04-07T13:37:27;101307.50;;;9.72;82.48
48204;BME280;33994;50.998;5.864;2023-04-07T13:40:30;101306.63;;;9.73;82.75
48204;BME280;33994;50.998;5.864;2023-04-07T13:43:33;101309.28;;;9.68;82.50
48204;BME280;33994;50.998;5.864;2023-04-07T13:46:36;101314.53;;;9.61;81.94
48204;BME280;33994;50.998;5.864;2023-04-07T13:49:40;101308.41;;;9.59;81.87
48204;BME280;33994;50.998;5.864;2023-04-07T13:52:44;101312.81;;;9.51;81.99
48204;BME280;33994;50.998;5.864;2023-04-07T13:55:47;101309.34;;;9.44;82.39
48204;BME280;33994;50.998;5.864;2023-04-07T13:58:50;101316.31;;;9.39;82.85
48204;BME280;33994;50.998;5.864;2023-04-07T14:01:53;101317.16;;;9.38;83.08
48204;BME280;33994;50.998;5.864;2023-04-07T14:04:58;101312.81;;;9.37;83.14
48204;BME280;33994;50.998;5.864;2023-04-07T14:08:01;101318.94;;;9.36;82.77
48204;BME280;33994;50.998;5.864;2023-04-07T14:11:04;101318.06;;;9.35;82.83
48204;BME280;33994;50.998;5.864;2023-04-07T14:14:07;101320.66;;;9.37;83.02
48204;BME280;33994;50.998;5.864;2023-04-07T14:17:10;101317.19;;;9.39;83.38
48204;BME280;33994;50.998;5.864;2023-04-07T14:20:15;101318.03;;;9.41;83.74
48204;BME280;33994;50.998;5.864;2023-04-07T14:23:18;101326.72;;;9.45;83.63
48204;BME280;33994;50.998;5.864;2023-04-07T14:26:21;101312.81;;;9.44;83.09
48204;BME280;33994;50.998;5.864;2023-04-07T14:29:24;101317.16;;;9.44;82.85
48204;BME280;33994;50.998;5.864;2023-04-07T14:32:27;101328.47;;;9.47;82.60
48204;BME280;33994;50.998;5.864;2023-04-07T14:35:32;101323.22;;;9.49;82.49
48204;BME280;33994;50.998;5.864;2023-04-07T14:38:34;101318.03;;;9.51;82.42
48204;BME280;33994;50.998;5.864;2023-04-07T14:41:37;101324.97;;;9.55;82.25
48204;BME280;33994;50.998;5.864;2023-04-07T14:44:41;101324.97;;;9.55;81.71
48204;BME280;33994;50.998;5.864;2023-04-07T14:47:44;101319.75;;;9.52;80.97
48204;BME280;33994;50.998;5.864;2023-04-07T14:50:48;101316.25;;;9.53;80.34
48204;BME280;33994;50.998;5.864;2023-04-07T14:53:52;101312.81;;;9.54;79.50
48204;BME280;33994;50.998;5.864;2023-04-07T14:56:55;101314.53;;;9.58;79.37
48204;BME280;33994;50.998;5.864;2023-04-07T14:59:58;101320.59;;;9.60;78.78
48204;BME280;33994;50.998;5.864;2023-04-07T15:03:02;101325.81;;;9.60;78.04
48204;BME280;33994;50.998;5.864;2023-04-07T15:06:07;101321.47;;;9.59;77.45
48204;BME280;33994;50.998;5.864;2023-04-07T15:09:11;101330.19;;;9.61;77.57
48204;BME280;33994;50.998;5.864;2023-04-07T15:12:14;101331.91;;;9.65;77.45
48204;BME280;33994;50.998;5.864;2023-04-07T15:15:17;101339.75;;;9.66;77.47
48204;BME280;33994;50.998;5.864;2023-04-07T15:18:20;101338.00;;;9.67;77.32
48204;BME280;33994;50.998;5.864;2023-04-07T15:21:24;101344.09;;;9.66;77.40
48204;BME280;33994;50.998;5.864;2023-04-07T15:24:27;101342.34;;;9.68;77.37
48204;BME280;33994;50.998;5.864;2023-04-07T15:27:30;101344.09;;;9.69;77.42
48204;BME280;33994;50.998;5.864;2023-04-07T15:30:33;101344.94;;;9.74;77.38
48204;BME280;33994;50.998;5.864;2023-04-07T15:33:36;101340.59;;;9.76;77.42
48204;BME280;33994;50.998;5.864;2023-04-07T15:36:41;101336.22;;;9.81;77.14
48204;BME280;33994;50.998;5.864;2023-04-07T15:39:43;101343.16;;;9.85;76.65
48204;BME280;33994;50.998;5.864;2023-04-07T15:42:47;101344.88;;;9.86;75.88
48204;BME280;33994;50.998;5.864;2023-04-07T15:45:50;101344.03;;;9.84;75.30
48204;BME280;33994;50.998;5.864;2023-04-07T15:48:53;101351.00;;;9.84;75.31
48204;BME280;33994;50.998;5.864;2023-04-07T15:51:57;101352.72;;;9.83;75.14
48204;BME280;33994;50.998;5.864;2023-04-07T15:55:01;101351.84;;;9.86;75.31
48204;BME280;33994;50.998;5.864;2023-04-07T15:58:04;101361.44;;;9.85;75.23
48204;BME280;33994;50.998;5.864;2023-04-07T16:01:07;101356.22;;;9.82;75.00
48204;BME280;33994;50.998;5.864;2023-04-07T16:04:10;101363.19;;;9.82;75.04
48204;BME280;33994;50.998;5.864;2023-04-07T16:07:15;101368.41;;;9.82;74.80
48204;BME280;33994;50.998;5.864;2023-04-07T16:10:18;101364.94;;;9.78;74.81
48204;BME280;33994;50.998;5.864;2023-04-07T16:13:21;101364.09;;;9.76;75.02